createdAt,value
2022-08-25T00:00:08.430Z,9.711773
2022-08-25T00:01:08.419Z,9.711813
2022-08-25T00:02:08.458Z,9.711817
2022-08-25T00:03:08.446Z,9.711758
2022-08-25T00:04:08.385Z,9.711627
2022-08-25T00:05:08.458Z,9.711536
2022-08-25T00:06:08.974Z,9.711460
2022-08-25T00:07:08.367Z,9.711514
2022-08-25T00:08:08.364Z,9.711512
2022-08-25T00:09:08.390Z,9.711659
2022-08-25T00:10:08.351Z,9.711658
2022-08-25T00:11:08.348Z,9.711581
2022-08-25T00:12:08.334Z,9.711584
2022-08-25T00:13:08.316Z,9.711504
2022-08-25T00:14:08.308Z,9.711346
2022-08-25T00:15:08.297Z,9.711411
2022-08-25T00:16:08.355Z,9.711426
2022-08-25T00:17:09.290Z,9.711410
2022-08-25T00:18:16.615Z,9.711489
2022-08-25T00:19:09.273Z,9.711526
2022-08-25T00:20:08.263Z,9.711431
2022-08-25T00:21:08.262Z,9.711202
2022-08-25T00:22:08.294Z,9.711434
2022-08-25T00:23:08.253Z,9.711557
2022-08-25T00:24:08.235Z,9.711663
2022-08-25T00:25:08.222Z,9.711817
2022-08-25T00:26:08.231Z,9.711813
2022-08-25T00:27:08.249Z,9.711787
2022-08-25T00:28:08.718Z,9.711735
2022-08-25T00:29:09.195Z,9.711656
2022-08-25T00:30:08.196Z,9.711673
2022-08-25T00:44:09.306Z,9.711696
2022-08-25T00:45:09.301Z,9.711901
2022-08-25T00:46:09.331Z,9.711882
2022-08-25T00:47:09.282Z,9.711827
2022-08-25T00:48:09.308Z,9.711596
2022-08-25T00:49:09.258Z,9.711651
2022-08-25T00:50:10.252Z,9.711644
2022-08-25T00:51:09.252Z,9.711700
2022-08-25T00:52:09.247Z,9.711713
2022-08-25T00:53:09.273Z,9.711852
2022-08-25T00:54:09.225Z,9.711781
2022-08-25T00:55:09.222Z,9.711729
2022-08-25T00:56:09.214Z,9.711725
2022-08-25T00:57:09.203Z,9.711697
2022-08-25T00:58:09.203Z,9.711732
2022-08-25T00:59:09.189Z,9.711691
2022-08-25T01:00:09.191Z,9.711608
2022-08-25T01:01:09.225Z,9.711598
2022-08-25T01:02:13.588Z,9.711564
2022-08-25T01:03:09.159Z,9.711626
2022-08-25T01:04:09.145Z,9.711764
2022-08-25T01:05:09.147Z,9.711912
2022-08-25T01:06:09.132Z,9.711826
2022-08-25T01:07:10.252Z,9.711792
2022-08-25T01:08:10.246Z,9.711938
2022-08-25T01:09:09.115Z,9.711787
2022-08-25T01:10:09.119Z,9.711706
2022-08-25T01:11:09.095Z,9.711882
2022-08-25T01:12:09.084Z,9.711887
2022-08-25T01:13:13.572Z,9.711751
2022-08-25T01:14:10.079Z,9.711758
2022-08-25T01:15:09.081Z,9.711791
2022-08-25T01:16:09.128Z,9.711719
2022-08-25T01:17:09.040Z,9.711861
2022-08-25T01:18:09.037Z,9.711862
2022-08-25T01:19:09.019Z,9.711760
2022-08-25T01:20:10.032Z,9.711766
2022-08-25T01:21:09.022Z,9.711767
2022-08-25T01:22:09.003Z,9.711784
2022-08-25T01:23:09.002Z,9.711766
2022-08-25T01:24:08.986Z,9.711761
2022-08-25T01:25:08.972Z,9.711753
2022-08-25T01:26:08.975Z,9.711780
2022-08-25T01:27:08.981Z,9.711753
2022-08-25T01:28:08.956Z,9.711731
2022-08-25T01:29:08.945Z,9.711732
2022-08-25T01:30:08.942Z,9.711635
2022-08-25T01:31:23.875Z,9.711733
2022-08-25T01:32:09.924Z,9.711752
2022-08-25T01:33:09.919Z,9.711761
2022-08-25T01:34:08.917Z,9.711797
2022-08-25T01:35:08.902Z,9.711727
2022-08-25T01:36:08.898Z,9.711611
2022-08-25T01:37:08.891Z,9.711885
2022-08-25T01:38:08.890Z,9.711828
2022-08-25T01:39:08.866Z,9.711812
2022-08-25T01:40:08.888Z,9.711740
2022-08-25T01:41:08.886Z,9.711740
2022-08-25T01:42:08.851Z,9.711525
2022-08-25T01:43:08.842Z,9.711745
2022-08-25T01:44:08.835Z,9.711646
2022-08-25T01:45:09.838Z,9.711539
2022-08-25T01:46:08.838Z,9.711520
2022-08-25T01:47:08.806Z,9.711452
2022-08-25T01:48:08.807Z,9.711506
2022-08-25T01:49:08.789Z,9.711553
2022-08-25T01:50:08.799Z,9.711666
2022-08-25T01:51:08.785Z,9.711657
2022-08-25T01:52:08.787Z,9.711666
2022-08-25T01:53:08.766Z,9.711651
2022-08-25T01:54:08.769Z,9.711603
2022-08-25T01:55:08.752Z,9.711570
2022-08-25T01:56:09.778Z,9.711512
2022-08-25T01:57:08.784Z,9.711571
2022-08-25T01:58:08.733Z,9.711679
2022-08-25T01:59:08.717Z,9.711702
2022-08-25T02:00:08.698Z,9.711581
2022-08-25T02:01:09.752Z,9.711517
2022-08-25T02:02:08.749Z,9.711542
2022-08-25T02:03:08.688Z,9.711611
2022-08-25T02:04:09.676Z,9.711701
2022-08-25T02:05:08.669Z,9.711581
2022-08-25T02:06:08.664Z,9.711588
2022-08-25T02:07:08.663Z,9.711631
2022-08-25T02:08:08.646Z,9.711683
2022-08-25T02:09:08.655Z,9.711777
2022-08-25T02:10:08.629Z,9.711919
2022-08-25T02:11:08.636Z,9.711760
2022-08-25T02:12:08.621Z,9.711897
2022-08-25T02:13:08.620Z,9.711853
2022-08-25T02:14:08.606Z,9.711850
2022-08-25T02:15:08.597Z,9.711801
2022-08-25T02:16:08.589Z,9.711869
2022-08-25T02:17:08.601Z,9.712080
2022-08-25T02:18:08.579Z,9.712295
2022-08-25T02:19:08.568Z,9.712422
2022-08-25T02:20:08.558Z,9.712325
2022-08-25T02:21:08.555Z,9.712351
2022-08-25T02:22:09.220Z,9.712736
2022-08-25T02:23:08.529Z,9.712630
2022-08-25T02:24:08.545Z,9.712605
2022-08-25T02:25:08.518Z,9.712529
2022-08-25T02:26:08.510Z,9.712298
2022-08-25T02:27:09.209Z,9.711802
2022-08-25T02:28:08.480Z,9.711580
2022-08-25T02:29:09.489Z,9.711530
2022-08-25T02:30:08.488Z,9.711510
2022-08-25T02:31:08.519Z,9.711506
2022-08-25T02:32:08.462Z,9.711534
2022-08-25T02:33:08.457Z,9.711415
2022-08-25T02:34:08.453Z,9.711435
2022-08-25T02:35:08.453Z,9.711480
2022-08-25T02:36:08.431Z,9.711663
2022-08-25T02:37:08.424Z,9.711662
2022-08-25T02:38:08.420Z,9.711642
2022-08-25T02:39:08.409Z,9.711591
2022-08-25T02:40:08.443Z,9.711656
2022-08-25T02:41:08.391Z,9.711707
2022-08-25T02:42:08.391Z,9.711747
2022-08-25T02:43:08.384Z,9.711782
2022-08-25T02:44:08.381Z,9.711691
2022-08-25T02:45:08.363Z,9.711729
2022-08-25T02:46:08.402Z,9.711725
2022-08-25T02:47:08.358Z,9.711737
2022-08-25T02:48:08.357Z,9.711741
2022-08-25T02:49:08.334Z,9.711647
2022-08-25T02:50:08.320Z,9.711699
2022-08-25T02:51:09.285Z,9.711718
2022-08-25T02:52:08.304Z,9.711684
2022-08-25T02:53:08.305Z,9.711626
2022-08-25T02:54:08.313Z,9.711649
2022-08-25T02:55:08.282Z,9.711661
2022-08-25T02:56:08.293Z,9.711624
2022-08-25T02:57:08.328Z,9.711576
2022-08-25T02:58:08.263Z,9.711622
2022-08-25T02:59:08.264Z,9.711621
2022-08-25T03:00:09.239Z,9.711679
2022-08-25T03:01:08.282Z,9.711656
2022-08-25T03:02:08.235Z,9.711677
2022-08-25T03:03:08.223Z,9.711674
2022-08-25T03:04:08.226Z,9.711661
2022-08-25T03:05:08.279Z,9.711678
2022-08-25T03:06:08.210Z,9.711674
2022-08-25T03:07:08.213Z,9.711657
2022-08-25T03:08:08.195Z,9.711660
2022-08-25T03:09:08.181Z,9.711630
2022-08-25T03:10:08.794Z,9.711650
2022-08-25T03:11:08.167Z,9.711614
2022-08-25T03:12:08.153Z,9.711617
2022-08-25T03:13:08.159Z,9.711594
2022-08-25T03:14:08.146Z,9.711635
2022-08-25T03:15:10.876Z,9.711616
2022-08-25T03:16:11.413Z,9.711621
2022-08-25T03:17:08.698Z,9.711606
2022-08-25T03:18:08.677Z,9.711577
2022-08-25T03:19:09.095Z,9.711475
2022-08-25T03:20:08.099Z,9.711535
2022-08-25T03:21:08.083Z,9.711625
2022-08-25T03:22:08.077Z,9.711629
2022-08-25T03:23:08.075Z,9.711526
2022-08-25T03:24:08.071Z,9.711626
2022-08-25T03:25:08.049Z,9.711641
2022-08-25T03:26:08.057Z,9.711491
2022-08-25T03:27:08.053Z,9.711655
2022-08-25T03:28:08.027Z,9.711708
2022-08-25T03:29:08.021Z,9.711555
2022-08-25T03:30:08.010Z,9.711629
2022-08-25T03:31:08.007Z,9.711619
2022-08-25T03:32:08.034Z,9.711755
2022-08-25T03:33:07.987Z,9.711544
2022-08-25T03:34:40.263Z,9.711735
2022-08-25T03:35:07.974Z,9.711596
2022-08-25T03:36:07.953Z,9.711578
2022-08-25T03:37:08.951Z,9.711562
2022-08-25T03:38:07.953Z,9.711832
2022-08-25T03:39:07.930Z,9.711722
2022-08-25T03:40:08.005Z,9.711638
2022-08-25T03:41:08.921Z,9.711658
2022-08-25T03:42:07.922Z,9.711744
2022-08-25T03:43:07.912Z,9.711513
2022-08-25T03:44:07.931Z,9.711689
2022-08-25T03:45:07.887Z,9.711545
2022-08-25T03:46:07.944Z,9.711522
2022-08-25T03:47:07.899Z,9.711374
2022-08-25T03:48:07.864Z,9.711085
2022-08-25T03:49:07.858Z,9.710728
2022-08-25T03:50:07.851Z,9.711287
2022-08-25T03:51:07.849Z,9.711667
2022-08-25T03:52:07.841Z,9.711645
2022-08-25T03:53:07.828Z,9.711615
2022-08-25T03:54:07.842Z,9.710932
2022-08-25T03:55:07.814Z,9.711818
2022-08-25T03:56:07.804Z,9.711794
2022-08-25T03:57:07.783Z,9.712002
2022-08-25T03:58:08.784Z,9.711897
2022-08-25T03:59:07.780Z,9.711839
2022-08-25T04:00:07.787Z,9.711768
2022-08-25T04:01:07.785Z,9.711640
2022-08-25T04:02:07.781Z,9.711752
2022-08-25T04:03:07.758Z,9.711658
2022-08-25T04:04:07.739Z,9.711571
2022-08-25T04:05:07.751Z,9.711777
2022-08-25T04:06:07.723Z,9.711749
2022-08-25T04:07:07.766Z,9.711841
2022-08-25T04:08:07.915Z,9.711598
2022-08-25T04:09:07.714Z,9.711458
2022-08-25T04:10:07.725Z,9.711933
2022-08-25T04:11:07.691Z,9.711922
2022-08-25T04:12:07.686Z,9.712174
2022-08-25T04:13:07.674Z,9.712753
2022-08-25T04:14:07.655Z,9.712073
2022-08-25T04:15:07.668Z,9.711886
2022-08-25T04:16:07.713Z,9.711542
2022-08-25T04:17:07.640Z,9.711463
2022-08-25T04:18:07.689Z,9.711368
2022-08-25T04:19:07.616Z,9.711782
2022-08-25T04:20:07.614Z,9.711868
2022-08-25T04:21:07.601Z,9.711463
2022-08-25T04:22:07.593Z,9.711262
2022-08-25T04:23:07.594Z,9.711612
2022-08-25T04:24:07.600Z,9.711537
2022-08-25T04:25:07.589Z,9.711698
2022-08-25T04:26:07.584Z,9.711867
2022-08-25T04:27:07.559Z,9.712425
2022-08-25T04:28:07.721Z,9.712377
2022-08-25T04:29:07.539Z,9.712423
2022-08-25T04:30:07.537Z,9.712183
2022-08-25T04:31:07.523Z,9.711868
2022-08-25T04:32:07.601Z,9.711988
2022-08-25T04:33:07.524Z,9.711677
2022-08-25T04:34:14.346Z,9.711512
2022-08-25T04:35:08.491Z,9.711303
2022-08-25T04:36:11.554Z,9.711220
2022-08-25T04:37:08.612Z,9.711214
2022-08-25T04:38:07.473Z,9.711365
2022-08-25T04:39:07.464Z,9.711288
2022-08-25T04:40:07.510Z,9.711558
2022-08-25T04:41:07.446Z,9.711844
2022-08-25T04:42:07.447Z,9.711725
2022-08-25T04:43:07.463Z,9.711687
2022-08-25T04:44:07.423Z,9.711226
2022-08-25T04:45:07.425Z,9.711272
2022-08-25T04:46:07.453Z,9.711579
2022-08-25T04:47:07.408Z,9.711719
2022-08-25T04:48:07.534Z,9.711409
2022-08-25T04:49:07.390Z,9.711728
2022-08-25T04:50:07.387Z,9.711353
2022-08-25T04:51:07.367Z,9.711379
2022-08-25T04:52:13.158Z,9.711320
2022-08-25T04:53:08.353Z,9.711432
2022-08-25T04:54:07.344Z,9.711684
2022-08-25T04:55:07.362Z,9.711531
2022-08-25T04:56:07.338Z,9.711441
2022-08-25T04:57:07.330Z,9.711708
2022-08-25T04:58:07.340Z,9.711708
2022-08-25T04:59:08.304Z,9.711737
2022-08-25T05:00:07.313Z,9.711783
2022-08-25T05:01:07.322Z,9.711630
2022-08-25T05:02:07.276Z,9.711567
2022-08-25T05:03:07.280Z,9.711632
2022-08-25T05:04:07.371Z,9.711592
2022-08-25T05:05:07.262Z,9.711672
2022-08-25T05:06:07.247Z,9.711658
2022-08-25T05:07:07.771Z,9.711550
2022-08-25T05:08:07.413Z,9.711510
2022-08-25T05:09:07.218Z,9.711596
2022-08-25T05:10:07.855Z,9.711626
2022-08-25T05:11:07.210Z,9.711571
2022-08-25T05:12:07.196Z,9.711533
2022-08-25T05:13:07.190Z,9.711494
2022-08-25T05:14:07.194Z,9.711560
2022-08-25T05:15:07.176Z,9.711466
2022-08-25T05:16:07.221Z,9.711885
2022-08-25T05:17:07.855Z,9.711967
2022-08-25T05:18:07.408Z,9.712124
2022-08-25T05:19:07.157Z,9.712010
2022-08-25T05:20:07.159Z,9.711684
2022-08-25T05:21:07.138Z,9.711715
2022-08-25T05:22:07.125Z,9.711817
2022-08-25T05:23:07.193Z,9.711692
2022-08-25T05:24:07.111Z,9.711676
2022-08-25T05:25:07.109Z,9.711725
2022-08-25T05:26:07.093Z,9.711657
2022-08-25T05:27:07.083Z,9.711668
2022-08-25T05:28:07.143Z,9.711456
2022-08-25T05:29:07.081Z,9.711738
2022-08-25T05:30:07.064Z,9.711899
2022-08-25T05:31:07.145Z,9.712024
2022-08-25T05:32:07.079Z,9.711857
2022-08-25T05:33:07.036Z,9.711684
2022-08-25T05:34:07.031Z,9.711774
2022-08-25T05:35:07.035Z,9.711586
2022-08-25T05:36:07.018Z,9.711663
2022-08-25T05:37:10.419Z,9.711558
2022-08-25T05:38:09.005Z,9.711733
2022-08-25T05:39:07.988Z,9.711503
2022-08-25T05:40:07.027Z,9.711524
2022-08-25T05:41:06.985Z,9.711478
2022-08-25T05:42:06.966Z,9.711477
2022-08-25T05:43:06.965Z,9.711529
2022-08-25T05:44:06.950Z,9.711583
2022-08-25T05:45:06.945Z,9.711741
2022-08-25T05:46:06.990Z,9.711629
2022-08-25T05:47:06.925Z,9.711704
2022-08-25T05:48:07.120Z,9.711625
2022-08-25T05:49:06.934Z,9.711633
2022-08-25T05:50:06.909Z,9.711590
2022-08-25T05:51:06.929Z,9.711632
2022-08-25T05:52:06.895Z,9.711591
2022-08-25T05:53:06.895Z,9.711564
2022-08-25T05:54:06.888Z,9.711619
2022-08-25T05:55:06.872Z,9.711601
2022-08-25T05:56:06.937Z,9.711575
2022-08-25T05:57:06.851Z,9.711500
2022-08-25T05:58:07.508Z,9.711450
2022-08-25T05:59:09.471Z,9.711543
2022-08-25T06:00:07.829Z,9.711530
2022-08-25T06:01:06.882Z,9.711574
2022-08-25T06:02:06.821Z,9.711537
2022-08-25T06:03:06.815Z,9.711554
2022-08-25T06:04:06.865Z,9.711578
2022-08-25T06:05:06.795Z,9.711569
2022-08-25T06:06:06.801Z,9.711556
2022-08-25T06:07:06.785Z,9.711588
2022-08-25T06:08:06.991Z,9.711631
2022-08-25T06:09:06.764Z,9.711640
2022-08-25T06:10:06.774Z,9.711619
2022-08-25T06:11:06.755Z,9.711708
2022-08-25T06:12:06.742Z,9.711657
2022-08-25T06:13:06.729Z,9.711629
2022-08-25T06:14:06.734Z,9.711652
2022-08-25T06:15:06.724Z,9.711621
2022-08-25T06:16:06.729Z,9.711632
2022-08-25T06:17:06.703Z,9.711665
2022-08-25T06:18:06.786Z,9.711644
2022-08-25T06:19:06.682Z,9.711666
2022-08-25T06:20:06.684Z,9.711606
2022-08-25T06:21:06.674Z,9.711619
2022-08-25T06:22:06.665Z,9.711600
2022-08-25T06:23:06.664Z,9.711678
2022-08-25T06:24:08.524Z,9.711660
2022-08-25T06:25:06.652Z,9.711675
2022-08-25T06:26:06.658Z,9.711630
2022-08-25T06:27:06.684Z,9.711630
2022-08-25T06:28:07.511Z,9.711556
2022-08-25T06:29:07.397Z,9.711511
2022-08-25T06:30:07.898Z,9.711489
2022-08-25T06:31:06.667Z,9.711545
2022-08-25T06:32:06.592Z,9.711689
2022-08-25T06:33:06.600Z,9.711671
2022-08-25T06:34:06.606Z,9.711634
2022-08-25T06:35:06.578Z,9.711654
2022-08-25T06:36:06.576Z,9.711688
2022-08-25T06:37:06.543Z,9.711847
2022-08-25T06:38:06.732Z,9.711674
2022-08-25T06:39:06.536Z,9.711662
2022-08-25T06:40:06.620Z,9.711626
2022-08-25T06:41:06.525Z,9.711645
2022-08-25T06:42:06.527Z,9.711701
2022-08-25T06:43:06.501Z,9.711615
2022-08-25T06:44:06.500Z,9.711672
2022-08-25T06:45:06.493Z,9.711661
2022-08-25T06:46:06.491Z,9.711648
2022-08-25T06:47:06.502Z,9.711835
2022-08-25T06:48:06.636Z,9.711864
2022-08-25T06:49:06.476Z,9.711981
2022-08-25T06:50:06.468Z,9.711865
2022-08-25T06:51:06.447Z,9.711765
2022-08-25T06:52:06.452Z,9.711725
2022-08-25T06:53:06.428Z,9.711772
2022-08-25T06:54:06.416Z,9.711905
2022-08-25T06:55:06.419Z,9.711854
2022-08-25T06:56:06.800Z,9.711817
2022-08-25T06:57:08.314Z,9.711731
2022-08-25T06:58:06.581Z,9.711640
2022-08-25T06:59:06.375Z,9.711823
2022-08-25T07:00:06.369Z,9.711768
2022-08-25T07:01:06.392Z,9.711848
2022-08-25T07:02:06.446Z,9.711451
2022-08-25T07:03:07.082Z,9.711430
2022-08-25T07:04:10.428Z,9.711419
2022-08-25T07:05:10.469Z,9.711378
2022-08-25T07:06:06.374Z,9.711443
2022-08-25T07:07:06.314Z,9.711465
2022-08-25T07:08:07.331Z,9.711496
2022-08-25T07:09:06.297Z,9.711535
2022-08-25T07:10:06.318Z,9.711558
2022-08-25T07:11:06.281Z,9.711478
2022-08-25T07:12:06.296Z,9.711497
2022-08-25T07:13:06.273Z,9.711455
2022-08-25T07:14:06.267Z,9.711617
2022-08-25T07:15:20.391Z,9.711580
2022-08-25T07:16:08.324Z,9.711622
2022-08-25T07:17:12.627Z,9.711663
2022-08-25T07:18:07.448Z,9.711729
2022-08-25T07:19:06.822Z,9.711655
2022-08-25T07:20:06.281Z,9.711643
2022-08-25T07:21:08.790Z,9.711633
2022-08-25T07:22:06.196Z,9.711637
2022-08-25T07:23:06.318Z,9.711652
2022-08-25T07:24:06.189Z,9.711665
2022-08-25T07:25:06.227Z,9.711609
2022-08-25T07:26:15.844Z,9.711625
2022-08-25T07:27:08.151Z,9.711616
2022-08-25T07:28:06.140Z,9.711619
2022-08-25T07:29:06.143Z,9.711618
2022-08-25T07:30:06.905Z,9.711629
2022-08-25T07:31:06.167Z,9.711625
2022-08-25T07:32:06.114Z,9.711623
2022-08-25T07:33:06.931Z,9.711652
2022-08-25T07:34:07.912Z,9.711603
2022-08-25T07:35:06.102Z,9.711635
2022-08-25T07:36:06.084Z,9.711625
2022-08-25T07:37:06.091Z,9.711632
2022-08-25T07:38:06.075Z,9.711590
2022-08-25T07:39:06.049Z,9.711625
2022-08-25T07:40:06.978Z,9.711614
2022-08-25T07:41:06.038Z,9.711600
2022-08-25T07:42:09.217Z,9.711530
2022-08-25T07:43:07.059Z,9.711597
2022-08-25T07:44:06.014Z,9.711626
2022-08-25T07:45:06.015Z,9.711463
2022-08-25T07:46:06.024Z,9.711530
2022-08-25T07:47:05.994Z,9.711590
2022-08-25T07:48:05.988Z,9.711650
2022-08-25T07:49:16.342Z,9.711441
2022-08-25T07:50:06.969Z,9.711378
2022-08-25T07:51:05.973Z,9.711517
2022-08-25T07:52:06.857Z,9.711517
2022-08-25T07:53:08.054Z,9.711775
2022-08-25T07:54:05.929Z,9.711749
2022-08-25T07:55:08.148Z,9.711749
2022-08-25T07:56:05.949Z,9.711650
2022-08-25T07:57:05.907Z,9.711706
2022-08-25T07:58:05.930Z,9.711883
2022-08-25T07:59:05.892Z,9.711834
2022-08-25T08:00:05.892Z,9.711701
2022-08-25T08:01:05.877Z,9.711822
2022-08-25T08:02:05.914Z,9.711797
2022-08-25T08:03:05.963Z,9.711760
2022-08-25T08:04:05.901Z,9.711692
2022-08-25T08:05:05.857Z,9.711646
2022-08-25T08:06:05.831Z,9.711119
2022-08-25T08:07:05.843Z,9.711725
2022-08-25T08:08:07.137Z,9.711784
2022-08-25T08:09:05.822Z,9.711755
2022-08-25T08:10:36.991Z,9.711958
2022-08-25T08:11:07.792Z,9.711727
2022-08-25T08:12:05.796Z,9.711700
2022-08-25T08:13:07.530Z,9.711700
2022-08-25T08:14:06.778Z,9.711700
2022-08-25T08:15:10.083Z,9.711641
2022-08-25T08:16:05.836Z,9.711609
2022-08-25T08:17:05.763Z,9.711599
2022-08-25T08:18:07.320Z,9.711618
2022-08-25T08:19:05.756Z,9.711725
2022-08-25T08:20:05.755Z,9.711637
2022-08-25T08:21:05.721Z,9.711625
2022-08-25T08:22:05.709Z,9.711617
2022-08-25T08:23:05.863Z,9.711610
2022-08-25T08:24:14.879Z,9.711537
2022-08-25T08:25:10.421Z,9.711611
2022-08-25T08:26:05.681Z,9.711637
2022-08-25T08:27:05.692Z,9.711665
2022-08-25T08:28:07.254Z,9.711649
2022-08-25T08:29:05.656Z,9.711662
2022-08-25T08:30:05.659Z,9.711646
2022-08-25T08:31:05.690Z,9.711686
2022-08-25T08:32:59.916Z,9.711692
2022-08-25T08:33:10.053Z,9.711721
2022-08-25T08:34:06.630Z,9.711753
2022-08-25T08:35:05.619Z,9.711732
2022-08-25T08:36:05.610Z,9.711714
2022-08-25T08:37:05.597Z,9.711688
2022-08-25T08:38:13.484Z,9.711753
2022-08-25T08:39:07.595Z,9.711689
2022-08-25T08:40:05.616Z,9.711801
2022-08-25T08:41:05.570Z,9.711706
2022-08-25T08:42:11.952Z,9.711739
2022-08-25T08:43:07.826Z,9.711708
2022-08-25T08:44:06.555Z,9.711576
2022-08-25T08:45:05.540Z,9.711674
2022-08-25T08:46:05.560Z,9.711723
2022-08-25T08:47:07.109Z,9.711655
2022-08-25T08:48:06.254Z,9.711682
2022-08-25T08:49:05.505Z,9.711748
2022-08-25T08:50:05.508Z,9.711711
2022-08-25T08:51:09.711Z,9.711733
2022-08-25T08:52:05.495Z,9.711731
2022-08-25T08:53:05.564Z,9.711806
2022-08-25T08:54:05.466Z,9.711784
2022-08-25T08:55:06.610Z,9.711729
2022-08-25T08:56:05.444Z,9.711747
2022-08-25T08:57:05.441Z,9.711690
2022-08-25T08:58:05.574Z,9.711509
2022-08-25T08:59:06.457Z,9.711567
2022-08-25T09:00:06.414Z,9.711692
2022-08-25T09:01:05.408Z,9.711729
2022-08-25T09:02:05.447Z,9.711777
2022-08-25T09:03:06.511Z,9.711718
2022-08-25T09:04:05.383Z,9.711981
2022-08-25T09:05:05.384Z,9.711721
2022-08-25T09:06:06.928Z,9.711687
2022-08-25T09:07:05.361Z,9.711836
2022-08-25T09:08:05.526Z,9.711708
2022-08-25T09:09:06.797Z,9.711516
2022-08-25T09:10:05.336Z,9.711464
2022-08-25T09:11:05.982Z,9.711411
2022-08-25T09:12:05.330Z,9.711353
2022-08-25T09:13:11.922Z,9.711372
2022-08-25T09:14:06.304Z,9.711425
2022-08-25T09:15:12.663Z,9.711490
2022-08-25T09:16:06.963Z,9.711727
2022-08-25T09:17:05.271Z,9.711674
2022-08-25T09:18:05.280Z,9.711702
2022-08-25T09:19:05.260Z,9.711731
2022-08-25T09:20:05.246Z,9.711617
2022-08-25T09:21:07.236Z,9.711743
2022-08-25T09:22:35.164Z,9.711842
2022-08-25T09:23:06.229Z,9.711863
2022-08-25T09:24:05.246Z,9.712027
2022-08-25T09:25:08.367Z,9.712420
2022-08-25T09:26:06.208Z,9.712133
2022-08-25T09:27:05.207Z,9.711573
2022-08-25T09:28:05.279Z,9.711548
2022-08-25T09:29:06.340Z,9.710828
2022-08-25T09:30:06.169Z,9.711770
2022-08-25T09:31:05.216Z,9.711737
2022-08-25T09:32:05.199Z,9.711775
2022-08-25T09:33:05.488Z,9.711852
2022-08-25T09:34:05.128Z,9.711838
2022-08-25T09:35:06.137Z,9.711724
2022-08-25T09:36:06.174Z,9.711746
2022-08-25T09:37:05.116Z,9.711757
2022-08-25T09:38:05.318Z,9.711611
2022-08-25T09:39:05.112Z,9.711536
2022-08-25T09:40:05.139Z,9.711462
2022-08-25T09:41:05.099Z,9.711385
2022-08-25T09:42:05.082Z,9.711626
2022-08-25T09:43:05.085Z,9.711632
2022-08-25T09:44:06.072Z,9.711862
2022-08-25T09:45:05.053Z,9.711863
2022-08-25T09:46:05.084Z,9.711863
2022-08-25T09:47:05.050Z,9.711863
2022-08-25T09:48:05.186Z,9.711863
2022-08-25T09:49:05.050Z,9.711863
2022-08-25T09:50:05.634Z,9.711667
2022-08-25T09:51:05.007Z,9.711689
2022-08-25T09:52:05.011Z,9.711663
2022-08-25T09:53:14.749Z,9.711894
2022-08-25T09:54:10.743Z,9.711819
2022-08-25T09:55:05.017Z,9.711823
2022-08-25T09:56:05.021Z,9.711770
2022-08-25T09:57:04.981Z,9.711802
2022-08-25T09:58:09.422Z,9.711905
2022-08-25T09:59:04.948Z,9.711720
2022-08-25T10:00:05.960Z,9.711873
2022-08-25T10:01:05.031Z,9.711808
2022-08-25T10:02:05.003Z,9.711589
2022-08-25T10:03:06.114Z,9.711690
2022-08-25T10:04:04.967Z,9.711690
2022-08-25T10:05:05.000Z,9.711690
2022-08-25T10:06:04.903Z,9.711690
2022-08-25T10:07:04.892Z,9.711690
2022-08-25T10:08:04.877Z,9.711690
2022-08-25T10:09:05.968Z,9.711690
2022-08-25T10:10:04.867Z,9.711615
2022-08-25T10:11:04.848Z,9.711652
2022-08-25T10:12:04.843Z,9.711652
2022-08-25T10:13:06.262Z,9.711619
2022-08-25T10:14:04.822Z,9.711648
2022-08-25T10:15:04.827Z,9.711800
2022-08-25T10:16:04.892Z,9.711903
2022-08-25T10:17:05.797Z,9.711637
2022-08-25T10:18:04.796Z,9.711735
2022-08-25T10:19:04.787Z,9.711664
2022-08-25T10:20:04.786Z,9.711622
2022-08-25T10:21:04.780Z,9.711637
2022-08-25T10:22:04.767Z,9.711719
2022-08-25T10:23:05.053Z,9.712035
2022-08-25T10:24:04.752Z,9.711789
2022-08-25T10:25:04.915Z,9.711813
2022-08-25T10:26:04.825Z,9.711827
2022-08-25T10:27:04.784Z,9.711598
2022-08-25T10:28:04.883Z,9.711783
2022-08-25T10:29:04.741Z,9.711624
2022-08-25T10:30:05.707Z,9.711500
2022-08-25T10:31:05.745Z,9.711925
2022-08-25T10:32:07.036Z,9.712022
2022-08-25T10:33:06.032Z,9.711927
2022-08-25T10:34:04.686Z,9.712061
2022-08-25T10:35:04.676Z,9.712343
2022-08-25T10:36:04.676Z,9.712013
2022-08-25T10:37:04.659Z,9.712081
2022-08-25T10:38:04.650Z,9.711925
2022-08-25T10:39:05.465Z,9.711922
2022-08-25T10:40:05.682Z,9.711826
2022-08-25T10:41:05.637Z,9.711908
2022-08-25T10:42:05.237Z,9.711833
2022-08-25T10:43:04.857Z,9.711773
2022-08-25T10:44:04.615Z,9.711709
2022-08-25T10:45:04.716Z,9.711699
2022-08-25T10:46:04.646Z,9.711776
2022-08-25T10:47:04.595Z,9.711749
2022-08-25T10:48:04.579Z,9.711758
2022-08-25T10:49:04.586Z,9.711745
2022-08-25T10:50:04.611Z,9.711683
2022-08-25T10:51:04.570Z,9.711728
2022-08-25T10:52:04.557Z,9.711838
2022-08-25T10:53:04.996Z,9.711679
2022-08-25T10:54:04.535Z,9.711681
2022-08-25T10:55:04.523Z,9.711637
2022-08-25T10:56:04.521Z,9.711654
2022-08-25T10:57:04.515Z,9.711676
2022-08-25T10:58:04.501Z,9.711760
2022-08-25T10:59:04.491Z,9.711780
2022-08-25T11:00:36.992Z,9.711700
2022-08-25T11:01:04.569Z,9.711670
2022-08-25T11:02:04.546Z,9.711819
2022-08-25T11:03:05.118Z,9.711735
2022-08-25T11:04:04.463Z,9.711707
2022-08-25T11:05:04.536Z,9.711764
2022-08-25T11:06:04.442Z,9.711695
2022-08-25T11:07:04.464Z,9.711660
2022-08-25T11:08:04.440Z,9.711656
2022-08-25T11:09:04.420Z,9.711685
2022-08-25T11:10:04.427Z,9.711687
2022-08-25T11:11:04.552Z,9.711729
2022-08-25T11:12:04.431Z,9.711727
2022-08-25T11:13:04.622Z,9.711809
2022-08-25T11:14:07.862Z,9.711784
2022-08-25T11:15:06.384Z,9.711699
2022-08-25T11:16:17.210Z,9.711716
2022-08-25T11:17:07.078Z,9.711685
2022-08-25T11:18:04.357Z,9.711682
2022-08-25T11:19:05.617Z,9.711659
2022-08-25T11:20:04.344Z,9.711681
2022-08-25T11:21:04.362Z,9.711641
2022-08-25T11:22:04.389Z,9.711675
2022-08-25T11:23:04.796Z,9.711710
2022-08-25T11:24:04.400Z,9.711703
2022-08-25T11:25:04.313Z,9.711699
2022-08-25T11:26:04.307Z,9.711662
2022-08-25T11:27:04.302Z,9.711634
2022-08-25T11:28:04.482Z,9.711590
2022-08-25T11:29:04.278Z,9.711658
2022-08-25T11:30:05.959Z,9.711652
2022-08-25T11:31:04.326Z,9.711660
2022-08-25T11:32:04.253Z,9.711642
2022-08-25T11:33:04.250Z,9.711661
2022-08-25T11:34:05.018Z,9.711710
2022-08-25T11:35:36.546Z,9.711678
2022-08-25T11:36:04.232Z,9.711782
2022-08-25T11:37:04.247Z,9.711683
2022-08-25T11:38:04.514Z,9.711736
2022-08-25T11:39:04.195Z,9.711656
2022-08-25T11:40:04.729Z,9.711682
2022-08-25T11:41:04.181Z,9.711674
2022-08-25T11:42:05.187Z,9.711659
2022-08-25T11:43:04.194Z,9.711671
2022-08-25T11:44:04.164Z,9.711589
2022-08-25T11:45:04.156Z,9.711681
2022-08-25T11:46:04.170Z,9.711614
2022-08-25T11:47:04.164Z,9.711604
2022-08-25T11:48:04.406Z,9.711659
2022-08-25T11:49:04.129Z,9.711663
2022-08-25T11:50:04.168Z,9.711664
2022-08-25T11:51:04.854Z,9.711653
2022-08-25T11:52:04.094Z,9.711697
2022-08-25T11:53:04.088Z,9.711656
2022-08-25T11:54:04.079Z,9.711700
2022-08-25T11:55:04.088Z,9.711647
2022-08-25T11:56:05.039Z,9.711679
2022-08-25T11:57:04.063Z,9.711687